Terminal Aerodrome Forecast
Issued by NWS

Home | Current Version | Previous Version | Text Only | Print | Product List | Glossary On
Versions: 1 2 3 4 5 6 7 8 9 10 11 12 13
000
FTUS45 KRIW 020500
TAFRKS
TAF
KRKS 020534Z 0206/0306 25010KT P6SM SKC
     FM021800 26020G30KT P6SM FEW080
     FM030200 30011KT P6SM FEW070=

USA.gov is the U.S. government's official web portal to all federal, state and local government web resources and services.